Time;durP1;ratioP1;P1;durP2;ratioP2;P2;SDS_P1;SDS_P2;PMS_P1;PMS_P2;Temp;Humidity;BMP_temperature;BMP_pressure;BME280_temperature;BME280_humidity;BME280_pressure;Samples;Min_cycle;Max_cycle;Signal;HPM_P1;HPM_P2
2023/03/25 00:00:52;;;;;;;21.75;13.00;;;;;;;10.29;69.83;94784.91;5015307;28;20196;-76
2023/03/25 00:03:21;;;;;;;22.17;12.45;;;;;;;10.33;69.46;94780.53;5013328;28;20694;-75
2023/03/25 00:05:47;;;;;;;17.88;12.10;;;;;;;10.31;69.54;94783.13;5014541;28;20556;-74
2023/03/25 00:08:14;;;;;;;17.50;12.00;;;;;;;10.26;69.61;94779.94;5013973;28;20646;-76
2023/03/25 00:10:41;;;;;;;13.82;11.75;;;;;;;10.27;69.54;94780.75;5014703;28;20334;-77
2023/03/25 00:13:07;;;;;;;18.30;11.77;;;;;;;10.27;69.46;94776.50;5013372;28;20291;-76
2023/03/25 00:15:34;;;;;;;19.95;12.77;;;;;;;10.21;69.63;94767.41;5014869;28;20714;-75
2023/03/25 00:18:01;;;;;;;14.73;12.45;;;;;;;10.16;69.74;94771.78;5013448;28;20297;-76
2023/03/25 00:20:31;;;;;;;18.77;12.68;;;;;;;10.14;70.01;94771.03;5014401;28;20606;-76
2023/03/25 00:22:57;;;;;;;19.08;13.18;;;;;;;10.23;69.66;94769.88;5012963;28;20207;-75
2023/03/25 00:25:24;;;;;;;13.55;10.80;;;;;;;10.25;69.48;94759.66;5014191;28;20269;-78
2023/03/25 00:27:51;;;;;;;17.00;11.57;;;;;;;10.21;69.88;94756.41;5013651;28;20251;-76
2023/03/25 00:30:19;;;;;;;14.32;11.95;;;;;;;10.07;70.30;94758.59;5013718;28;20231;-76
2023/03/25 00:32:48;;;;;;;16.55;11.85;;;;;;;10.04;70.42;94756.16;5013826;28;20590;-76
2023/03/25 00:35:16;;;;;;;18.30;12.20;;;;;;;9.98;71.04;94759.75;5015027;28;20288;-77
2023/03/25 00:37:44;;;;;;;16.83;12.27;;;;;;;9.98;70.97;94764.84;5012972;28;20658;-77
2023/03/25 00:40:11;;;;;;;20.02;12.15;;;;;;;10.00;70.92;94758.00;5013736;28;20263;-76
2023/03/25 00:42:43;;;;;;;15.63;11.65;;;;;;;10.03;70.44;94751.97;5011112;28;20989;-77
2023/03/25 00:45:11;;;;;;;17.80;11.48;;;;;;;9.95;70.94;94759.03;5013250;28;20211;-78
2023/03/25 00:47:37;;;;;;;15.38;12.07;;;;;;;9.96;71.13;94751.38;5013659;28;20299;-76
2023/03/25 00:50:05;;;;;;;14.65;11.18;;;;;;;10.01;70.64;94754.56;5013483;28;20320;-76
2023/03/25 00:52:32;;;;;;;13.40;12.00;;;;;;;9.94;71.22;94742.97;5012681;28;20285;-76
2023/03/25 00:55:00;;;;;;;16.17;12.43;;;;;;;9.90;70.93;94738.88;5012967;28;20228;-77
2023/03/25 00:57:27;;;;;;;16.55;11.77;;;;;;;9.82;71.61;94743.44;5012947;28;20282;-76
2023/03/25 00:59:54;;;;;;;19.08;12.27;;;;;;;9.83;71.83;94740.00;5012316;28;20292;-76
2023/03/25 01:02:21;;;;;;;12.40;11.02;;;;;;;9.78;71.48;94734.25;5013558;28;20215;-76
2023/03/25 01:04:49;;;;;;;16.23;11.45;;;;;;;9.72;71.74;94737.00;5012417;28;20239;-75
2023/03/25 01:07:16;;;;;;;16.20;11.15;;;;;;;9.77;71.50;94735.16;5013411;28;20200;-75
2023/03/25 01:09:45;;;;;;;16.58;12.43;;;;;;;9.68;72.37;94738.00;5012237;28;20273;-76
2023/03/25 01:12:13;;;;;;;14.57;11.30;;;;;;;9.65;72.57;94730.53;5014095;28;20199;-77
2023/03/25 01:14:40;;;;;;;16.13;11.35;;;;;;;9.64;72.35;94726.31;5012128;28;20305;-76
2023/03/25 01:17:07;;;;;;;15.43;11.00;;;;;;;9.67;72.17;94734.63;5013861;28;20345;-76
2023/03/25 01:19:34;;;;;;;12.98;10.45;;;;;;;9.73;71.64;94728.53;5010936;28;20235;-76
2023/03/25 01:22:01;;;;;;;12.23;11.00;;;;;;;9.78;71.33;94717.34;5013609;28;20208;-76
2023/03/25 01:24:27;;;;;;;13.65;11.68;;;;;;;9.73;71.60;94721.72;5012185;28;20724;-76
2023/03/25 01:26:54;;;;;;;13.73;10.13;;;;;;;9.63;72.05;94706.91;5013106;28;20307;-76
2023/03/25 01:29:22;;;;;;;17.23;10.68;;;;;;;9.65;71.69;94707.69;5013012;28;20227;-76
2023/03/25 01:31:50;;;;;;;14.40;10.60;;;;;;;9.67;71.97;94703.34;5012687;28;20266;-76
2023/03/25 01:34:17;;;;;;;14.65;11.45;;;;;;;9.61;71.98;94698.53;5011521;28;20200;-75
2023/03/25 01:36:45;;;;;;;13.23;10.75;;;;;;;9.67;72.49;94703.34;5012016;28;20357;-76
2023/03/25 01:39:15;;;;;;;15.75;11.43;;;;;;;9.68;72.12;94695.69;5012036;28;20208;-76
2023/03/25 01:41:43;;;;;;;12.57;11.15;;;;;;;9.68;71.88;94690.63;5011762;28;20681;-75
2023/03/25 01:44:48;;;;;;;13.77;10.73;;;;;;;9.66;71.74;94689.84;5011158;28;20306;-76
2023/03/25 01:47:17;;;;;;;13.95;10.55;;;;;;;9.60;72.22;94695.16;5011698;28;20698;-76
2023/03/25 01:49:46;;;;;;;14.88;11.20;;;;;;;9.55;71.99;94689.41;5011969;28;20425;-76
2023/03/25 01:52:16;;;;;;;16.52;11.98;;;;;;;9.48;72.37;94698.13;5010841;28;20627;-76
2023/03/25 01:54:44;;;;;;;17.02;11.05;;;;;;;9.47;72.56;94699.81;5011692;28;20312;-76
2023/03/25 01:57:16;;;;;;;11.77;10.55;;;;;;;9.46;72.80;94695.63;5012191;28;20229;-74
2023/03/25 01:59:43;;;;;;;20.48;11.65;;;;;;;9.44;73.05;94697.38;5012667;28;20203;-76
2023/03/25 02:02:14;;;;;;;14.95;10.98;;;;;;;9.43;72.67;94695.72;5011498;28;20235;-76
2023/03/25 02:04:50;;;;;;;15.35;11.15;;;;;;;9.43;72.68;94688.13;5012465;28;20743;-77
2023/03/25 02:07:18;;;;;;;15.00;10.77;;;;;;;9.35;72.93;94695.19;5011827;28;20212;-77
2023/03/25 02:09:45;;;;;;;21.90;11.15;;;;;;;9.31;73.27;94680.97;5013522;28;20208;-76
2023/03/25 02:12:12;;;;;;;13.77;10.55;;;;;;;9.25;74.04;94681.16;5010999;28;20239;-77
2023/03/25 02:14:40;;;;;;;12.35;10.45;;;;;;;9.28;73.53;94688.66;5012142;28;20302;-76
2023/03/25 02:17:19;;;;;;;20.40;10.82;;;;;;;9.28;73.67;94672.63;5011891;28;21253;-76
2023/03/25 02:20:20;;;;;;;17.85;11.50;;;;;;;9.24;73.67;94692.19;5012165;28;20231;-76
2023/03/25 02:23:20;;;;;;;15.23;10.82;;;;;;;9.19;73.52;94673.75;5009602;28;20680;-77
2023/03/25 02:26:26;;;;;;;20.25;11.43;;;;;;;9.19;74.09;94677.13;4996859;28;20282;-76
2023/03/25 02:29:00;;;;;;;17.35;10.25;;;;;;;9.20;73.90;94677.94;4977980;28;20806;-78
2023/03/25 02:32:00;;;;;;;16.60;11.13;;;;;;;9.17;73.26;94673.81;5015649;28;20207;-77
2023/03/25 02:34:47;;;;;;;12.93;10.10;;;;;;;9.15;73.40;94679.84;5004739;28;20240;-75
2023/03/25 02:37:45;;;;;;;16.02;11.77;;;;;;;9.13;73.88;94681.59;5015499;28;20242;-77
2023/03/25 02:40:18;;;;;;;25.38;16.67;;;;;;;9.07;73.97;94677.56;5006418;28;20277;-75
2023/03/25 02:42:51;;;;;;;35.63;21.23;;;;;;;9.01;74.19;94671.88;5012089;28;20305;-77
2023/03/25 02:45:25;;;;;;;43.03;19.10;;;;;;;8.96;74.82;94673.72;5015022;28;20291;-74
2023/03/25 02:47:58;;;;;;;30.90;20.65;;;;;;;9.02;74.38;94673.53;5017361;28;20305;-74
2023/03/25 02:50:30;;;;;;;25.70;17.92;;;;;;;9.02;74.77;94681.13;5016503;28;20257;-76
2023/03/25 02:53:01;;;;;;;28.02;18.10;;;;;;;8.97;75.05;94676.19;5014609;28;20305;-72
2023/03/25 02:55:30;;;;;;;25.35;17.17;;;;;;;8.91;75.17;94673.06;5016324;28;20227;-72
2023/03/25 02:57:59;;;;;;;34.92;17.85;;;;;;;8.87;75.17;94667.28;5014539;28;20602;-76
2023/03/25 03:00:28;;;;;;;24.35;16.40;;;;;;;8.85;75.57;94664.78;5015010;28;20204;-78
2023/03/25 03:02:58;;;;;;;28.33;17.70;;;;;;;8.83;75.31;94660.66;5014294;28;21042;-77
2023/03/25 03:05:27;;;;;;;33.88;16.77;;;;;;;8.85;75.30;94657.19;5016189;28;20732;-73
2023/03/25 03:08:07;;;;;;;23.60;16.33;;;;;;;8.84;75.38;94653.00;5013056;28;20345;-75
2023/03/25 03:10:43;;;;;;;28.70;18.05;;;;;;;8.74;75.68;94648.25;5016027;28;20291;-75
2023/03/25 03:13:21;;;;;;;27.58;17.10;;;;;;;8.83;74.84;94658.94;5012563;28;20239;-75
2023/03/25 03:15:57;;;;;;;26.85;16.48;;;;;;;8.86;75.67;94656.31;5015723;28;20235;-75
2023/03/25 03:18:43;;;;;;;26.55;16.15;;;;;;;8.90;75.27;94663.81;5014952;28;20230;-74
2023/03/25 03:21:15;;;;;;;26.98;16.92;;;;;;;8.79;74.91;94670.03;5015067;28;20216;-73
2023/03/25 03:23:55;;;;;;;20.52;14.73;;;;;;;8.83;74.98;94674.13;5016014;28;20211;-74
2023/03/25 03:26:28;;;;;;;22.75;15.32;;;;;;;8.74;75.34;94664.28;5014062;28;20327;-74
2023/03/25 03:29:03;;;;;;;22.08;15.82;;;;;;;8.78;75.31;94660.78;5016937;28;20238;-75
2023/03/25 03:31:36;;;;;;;22.65;15.05;;;;;;;8.67;74.94;94645.09;5016218;28;20337;-74
2023/03/25 03:34:09;;;;;;;26.58;16.15;;;;;;;8.71;75.49;94672.00;5013814;28;20290;-74
2023/03/25 03:36:43;;;;;;;22.85;15.60;;;;;;;8.62;75.67;94669.78;5014328;28;20996;-74
2023/03/25 03:39:18;;;;;;;26.75;15.70;;;;;;;8.64;76.18;94677.31;5014813;28;20214;-75
2023/03/25 03:41:52;;;;;;;30.67;16.08;;;;;;;8.64;75.29;94678.16;5013580;28;20210;-75
2023/03/25 03:44:22;;;;;;;24.80;14.88;;;;;;;8.53;75.99;94670.06;5013421;28;20230;-76
2023/03/25 03:46:54;;;;;;;23.75;16.15;;;;;;;8.48;76.91;94670.19;5015332;28;20199;-74
2023/03/25 03:49:26;;;;;;;35.50;13.63;;;;;;;8.47;76.38;94667.72;5012161;28;20208;-76
2023/03/25 03:51:59;;;;;;;20.40;13.88;;;;;;;8.49;76.49;94666.78;5014696;28;20212;-74
2023/03/25 03:54:30;;;;;;;19.75;14.60;;;;;;;8.47;76.44;94670.25;5014029;28;20208;-75
2023/03/25 03:57:02;;;;;;;21.67;13.70;;;;;;;8.34;76.44;94658.88;5015208;28;20232;-74
2023/03/25 03:59:37;;;;;;;20.88;14.02;;;;;;;8.36;76.69;94673.13;5015792;28;20298;-74
2023/03/25 04:02:09;;;;;;;21.60;14.02;;;;;;;8.31;77.31;94674.94;5015711;28;20401;-75
2023/03/25 04:04:37;;;;;;;27.30;15.35;;;;;;;8.32;76.89;94680.84;5014023;28;20255;-75
2023/03/25 04:07:09;;;;;;;18.77;12.55;;;;;;;8.32;77.39;94675.78;5014227;28;20291;-73
2023/03/25 04:09:42;;;;;;;14.82;11.88;;;;;;;8.33;77.10;94680.00;5015749;28;20681;-75
2023/03/25 04:12:16;;;;;;;17.73;12.30;;;;;;;8.30;76.35;94677.53;5013150;28;20294;-74
2023/03/25 04:14:43;;;;;;;15.48;12.15;;;;;;;8.27;76.33;94678.44;5014261;28;20235;-75
2023/03/25 04:17:10;;;;;;;19.33;11.65;;;;;;;8.26;76.98;94671.72;5015187;28;20299;-73
2023/03/25 04:19:38;;;;;;;15.20;11.38;;;;;;;8.25;76.98;94674.28;5016088;28;20207;-72
2023/03/25 04:22:05;;;;;;;19.05;11.50;;;;;;;8.29;76.88;94676.69;5014425;28;20208;-75
2023/03/25 04:24:36;;;;;;;15.00;11.30;;;;;;;8.16;76.71;94650.13;5013080;28;20704;-75
2023/03/25 04:27:03;;;;;;;16.67;12.05;;;;;;;8.26;76.30;94666.66;5014249;28;20342;-75
2023/03/25 04:29:32;;;;;;;20.23;11.18;;;;;;;8.28;75.94;94671.66;5013775;28;20262;-74
2023/03/25 04:31:59;;;;;;;14.57;10.52;;;;;;;8.33;76.35;94687.59;5014244;28;20914;-75
2023/03/25 04:34:26;;;;;;;15.15;11.30;;;;;;;8.36;76.41;94679.91;5012599;28;20716;-74
2023/03/25 04:36:53;;;;;;;18.35;11.90;;;;;;;8.48;75.59;94675.25;5014157;28;20207;-74
2023/03/25 04:39:21;;;;;;;18.23;10.85;;;;;;;8.48;75.83;94676.97;5013555;28;20211;-74
2023/03/25 04:41:48;;;;;;;16.38;11.05;;;;;;;8.59;75.53;94671.56;5013306;28;20208;-75
2023/03/25 04:44:15;;;;;;;16.10;10.10;;;;;;;8.55;74.92;94678.44;5012430;28;20277;-73
2023/03/25 04:46:44;;;;;;;15.15;10.68;;;;;;;8.68;75.26;94673.78;5013614;28;20201;-73
2023/03/25 04:49:19;;;;;;;14.35;10.27;;;;;;;8.88;74.21;94670.63;5013482;28;20273;-74
2023/03/25 04:51:48;;;;;;;19.13;10.38;;;;;;;8.96;74.06;94678.78;5014167;28;20213;-74
2023/03/25 04:54:15;;;;;;;16.42;10.38;;;;;;;9.06;74.07;94682.69;5011529;28;20691;-76
2023/03/25 04:56:41;;;;;;;15.65;11.80;;;;;;;9.45;72.87;94678.75;5014042;28;20589;-74
2023/03/25 04:59:09;;;;;;;15.55;10.80;;;;;;;10.34;71.19;94675.53;5013780;28;20251;-75
2023/03/25 05:01:40;;;;;;;25.48;11.50;;;;;;;11.77;66.58;94678.03;5014183;28;20412;-76
2023/03/25 05:04:11;;;;;;;16.38;9.98;;;;;;;13.44;60.56;94671.75;5012593;28;20663;-75
2023/03/25 05:06:40;;;;;;;13.27;9.45;;;;;;;15.35;53.78;94664.69;5013941;28;20223;-75
2023/03/25 05:09:09;;;;;;;11.77;10.10;;;;;;;17.28;49.08;94656.97;5013879;28;21786;-75
2023/03/25 05:11:38;;;;;;;16.52;9.77;;;;;;;19.07;44.77;94660.78;5012817;28;20298;-75
2023/03/25 05:14:05;;;;;;;12.75;9.68;;;;;;;20.40;40.36;94661.91;5012508;28;20306;-75
2023/03/25 05:16:32;;;;;;;12.75;11.02;;;;;;;21.64;37.60;94659.50;5012998;28;20217;-75
2023/03/25 05:18:59;;;;;;;10.93;9.50;;;;;;;22.80;35.56;94653.94;5012718;28;20366;-76
2023/03/25 05:21:27;;;;;;;12.02;10.77;;;;;;;23.55;33.54;94658.44;5011747;28;20765;-75
2023/03/25 05:23:53;;;;;;;23.70;11.35;;;;;;;23.76;33.10;94647.91;5011940;28;20217;-76
2023/03/25 05:26:20;;;;;;;23.98;17.00;;;;;;;23.99;32.94;94651.78;5012466;28;20828;-74
2023/03/25 05:28:50;;;;;;;31.58;19.63;;;;;;;23.89;32.96;94648.38;5013131;28;20206;-76
2023/03/25 05:31:16;;;;;;;26.20;17.25;;;;;;;24.56;31.82;94647.25;5013007;28;20212;-76
2023/03/25 05:33:43;;;;;;;19.00;12.63;;;;;;;25.20;30.46;94638.50;5011841;28;20647;-74
2023/03/25 05:36:10;;;;;;;24.70;13.25;;;;;;;25.51;29.98;94644.88;5012835;28;20288;-77
2023/03/25 05:38:40;;;;;;;20.08;13.68;;;;;;;25.51;30.42;94646.66;5012450;28;20212;-76
2023/03/25 05:41:09;;;;;;;26.60;14.77;;;;;;;25.14;30.85;94649.50;5012857;28;20274;-77
2023/03/25 05:43:36;;;;;;;24.17;15.50;;;;;;;24.73;31.57;94654.28;5012591;28;20259;-77
2023/03/25 05:46:04;;;;;;;23.92;15.70;;;;;;;24.48;32.32;94642.81;5012843;28;20330;-77
2023/03/25 05:48:31;;;;;;;21.75;14.25;;;;;;;24.37;31.31;94653.41;5011254;28;20205;-75
2023/03/25 05:50:59;;;;;;;22.08;15.65;;;;;;;23.79;32.05;94650.19;5011342;28;20681;-76
2023/03/25 05:53:26;;;;;;;23.67;15.27;;;;;;;24.08;33.18;94653.50;5012838;28;20218;-77
2023/03/25 05:55:54;;;;;;;19.05;14.20;;;;;;;24.37;31.83;94648.19;5012162;28;20258;-76
2023/03/25 05:58:21;;;;;;;24.35;13.98;;;;;;;24.49;31.51;94657.44;5012091;28;20323;-77
2023/03/25 06:00:51;;;;;;;19.30;14.20;;;;;;;24.59;31.63;94653.00;5015450;28;20266;-75
2023/03/25 06:03:19;;;;;;;27.88;17.55;;;;;;;25.15;30.99;94664.94;5016509;28;20250;-77
2023/03/25 06:05:48;;;;;;;29.30;15.15;;;;;;;25.92;30.13;94650.41;5014533;28;20211;-77
2023/03/25 06:08:16;;;;;;;26.08;15.55;;;;;;;26.52;28.48;94648.56;5013025;28;20200;-77
2023/03/25 06:10:44;;;;;;;28.13;14.13;;;;;;;27.10;28.19;94640.72;5012896;28;20204;-76
2023/03/25 06:13:13;;;;;;;20.98;14.35;;;;;;;27.19;27.67;94643.34;5012410;28;20350;-76
2023/03/25 06:15:41;;;;;;;19.73;12.48;;;;;;;26.78;27.95;94625.81;5013283;28;20239;-77
2023/03/25 06:18:09;;;;;;;15.88;13.52;;;;;;;26.60;28.28;94632.13;5013359;28;20255;-77
2023/03/25 06:20:36;;;;;;;18.17;13.00;;;;;;;26.45;27.99;94628.53;5013218;28;20212;-78
2023/03/25 06:23:03;;;;;;;12.35;11.05;;;;;;;26.15;28.61;94637.66;5011889;28;20305;-77
2023/03/25 06:25:30;;;;;;;14.18;12.75;;;;;;;25.81;28.54;94640.22;5010791;28;20200;-77
2023/03/25 06:28:00;;;;;;;17.80;11.23;;;;;;;25.70;29.05;94649.13;5012735;28;20219;-78
2023/03/25 06:30:28;;;;;;;15.65;13.45;;;;;;;26.26;28.65;94651.19;5011611;28;20349;-76
2023/03/25 06:32:57;;;;;;;16.98;12.02;;;;;;;26.96;27.39;94638.75;5012166;28;20227;-77
2023/03/25 06:35:24;;;;;;;24.80;14.82;;;;;;;26.83;27.61;94633.16;5011616;28;20235;-79
2023/03/25 06:37:51;;;;;;;21.45;15.57;;;;;;;25.70;29.26;94641.31;5014531;28;20247;-76
2023/03/25 06:40:18;;;;;;;35.55;18.25;;;;;;;24.77;30.97;94651.22;5012138;28;20204;-77
2023/03/25 06:42:46;;;;;;;34.03;15.73;;;;;;;25.15;30.33;94649.34;5013258;28;20204;-77
2023/03/25 06:45:12;;;;;;;23.75;16.17;;;;;;;25.76;29.55;94648.50;5012467;28;20207;-78
2023/03/25 06:47:40;;;;;;;25.67;16.10;;;;;;;27.49;27.93;94645.28;5011935;28;20210;-78
2023/03/25 06:50:08;;;;;;;30.05;16.35;;;;;;;29.83;24.78;94649.56;5012999;28;20305;-75
2023/03/25 06:52:36;;;;;;;20.85;14.55;;;;;;;31.60;22.39;94646.63;5011842;28;20207;-78
2023/03/25 06:55:03;;;;;;;22.75;14.27;;;;;;;33.12;21.26;94643.84;5012636;28;20200;-78
2023/03/25 06:57:30;;;;;;;24.48;16.92;;;;;;;33.52;20.74;94646.53;5011297;28;20239;-81
2023/03/25 06:59:56;;;;;;;41.35;32.05;;;;;;;33.69;20.51;94646.91;5012366;28;20220;-78
2023/03/25 07:02:23;;;;;;;20.83;15.32;;;;;;;33.08;20.86;94644.44;5010630;28;20261;-78
2023/03/25 07:04:51;;;;;;;23.20;17.30;;;;;;;33.99;20.15;94649.97;5011988;28;20960;-78
2023/03/25 07:07:18;;;;;;;27.27;16.38;;;;;;;35.37;19.16;94646.03;5011893;28;20330;-78
2023/03/25 07:09:45;;;;;;;26.63;16.92;;;;;;;35.90;18.20;94641.16;5010810;28;20287;-78
2023/03/25 07:12:11;;;;;;;18.70;14.90;;;;;;;36.76;17.83;94640.28;5012485;28;20223;-76
2023/03/25 07:14:38;;;;;;;30.00;19.73;;;;;;;36.64;18.12;94642.00;5011229;28;20299;-76
2023/03/25 07:17:05;;;;;;;17.50;13.45;;;;;;;36.80;17.47;94636.16;5015675;28;20265;-77
2023/03/25 07:19:32;;;;;;;18.75;14.07;;;;;;;36.26;17.87;94635.13;5015787;28;20390;-78
2023/03/25 07:22:00;;;;;;;19.00;13.57;;;;;;;35.35;18.20;94637.53;5014991;28;20306;-77
2023/03/25 07:24:26;;;;;;;18.33;14.48;;;;;;;34.69;18.73;94646.56;5014640;28;21010;-76
2023/03/25 07:26:53;;;;;;;16.65;14.80;;;;;;;35.50;18.31;94635.38;5016173;28;20357;-77
2023/03/25 07:29:20;;;;;;;18.08;13.02;;;;;;;37.14;17.67;94629.38;5015961;28;20204;-77
2023/03/25 07:31:47;;;;;;;13.43;11.90;;;;;;;38.55;16.66;94631.13;5015594;28;20308;-77
2023/03/25 07:34:14;;;;;;;21.20;14.00;;;;;;;39.51;15.51;94626.88;5014777;28;20211;-78
2023/03/25 07:36:40;;;;;;;21.17;16.67;;;;;;;40.45;14.76;94624.28;5015912;28;20228;-78
2023/03/25 07:39:08;;;;;;;27.48;16.00;;;;;;;41.08;14.47;94631.69;5014048;28;20350;-78
2023/03/25 07:41:35;;;;;;;23.25;15.63;;;;;;;40.82;14.75;94616.50;5017285;28;20296;-76
2023/03/25 07:44:02;;;;;;;19.40;14.57;;;;;;;41.13;14.47;94618.41;5014327;28;20645;-77
2023/03/25 07:46:28;;;;;;;16.17;14.25;;;;;;;41.88;14.31;94618.56;5016236;28;20200;-79
2023/03/25 07:48:55;;;;;;;17.48;14.23;;;;;;;42.64;13.72;94608.34;5014518;28;20200;-78
2023/03/25 07:51:22;;;;;;;21.63;14.25;;;;;;;43.17;13.34;94614.38;5014355;28;20227;-77
2023/03/25 07:53:49;;;;;;;16.20;14.32;;;;;;;43.35;13.01;94604.00;5015012;28;20270;-78
2023/03/25 07:56:17;;;;;;;14.32;13.13;;;;;;;40.68;14.50;94604.59;5016002;28;20785;-78
2023/03/25 07:58:44;;;;;;;20.05;13.90;;;;;;;39.86;15.34;94607.97;5014798;28;20318;-77
2023/03/25 08:01:10;;;;;;;16.73;14.73;;;;;;;39.40;15.10;94601.13;5014783;28;20204;-77
2023/03/25 08:03:38;;;;;;;25.52;15.68;;;;;;;39.37;15.25;94593.63;5013138;28;20366;-78
2023/03/25 08:06:06;;;;;;;20.77;16.10;;;;;;;39.77;15.42;94596.16;5015034;28;20564;-79
2023/03/25 08:08:33;;;;;;;23.13;15.13;;;;;;;41.63;14.04;94587.16;5012417;28;20212;-79
2023/03/25 08:11:00;;;;;;;17.20;15.20;;;;;;;41.65;13.69;94588.53;5014751;28;20322;-78
2023/03/25 08:13:28;;;;;;;22.80;14.90;;;;;;;40.11;14.57;94588.94;5014303;28;20285;-78
2023/03/25 08:15:55;;;;;;;19.60;14.43;;;;;;;38.62;15.69;94581.34;5016062;28;20231;-78
2023/03/25 08:18:22;;;;;;;18.55;15.02;;;;;;;37.95;16.38;94585.50;5012438;28;20728;-78
2023/03/25 08:20:50;;;;;;;20.63;15.52;;;;;;;37.22;16.91;94575.28;5015114;28;20313;-78
2023/03/25 08:23:17;;;;;;;18.95;16.52;;;;;;;37.03;17.10;94570.03;5013481;28;20302;-78
2023/03/25 08:25:44;;;;;;;19.33;15.13;;;;;;;36.76;17.42;94571.44;5011640;28;20211;-79
2023/03/25 08:28:12;;;;;;;17.45;14.85;;;;;;;36.78;17.12;94569.38;5013227;28;20365;-80
2023/03/25 08:30:40;;;;;;;22.75;16.40;;;;;;;36.55;17.27;94574.53;5015101;28;20208;-79
2023/03/25 08:33:11;;;;;;;20.52;16.77;;;;;;;33.88;19.57;94576.81;5017272;28;20203;-79
2023/03/25 08:35:38;;;;;;;18.98;15.57;;;;;;;31.85;21.96;94583.97;5017690;28;20891;-77
2023/03/25 08:38:05;;;;;;;17.33;14.88;;;;;;;32.79;21.30;94572.69;5014843;28;20284;-78
2023/03/25 08:40:32;;;;;;;16.60;14.80;;;;;;;34.69;19.77;94558.63;5014983;28;20298;-78
2023/03/25 08:42:59;;;;;;;18.40;14.73;;;;;;;35.78;18.87;94564.38;5014576;28;20319;-79
2023/03/25 08:45:26;;;;;;;19.52;15.00;;;;;;;34.95;19.23;94560.34;5013862;28;20208;-79
2023/03/25 08:47:54;;;;;;;23.83;15.00;;;;;;;35.02;19.17;94559.28;5014644;28;20357;-78
2023/03/25 08:50:21;;;;;;;24.70;16.08;;;;;;;34.82;18.74;94558.59;5013420;28;20215;-81
2023/03/25 08:52:47;;;;;;;21.40;15.60;;;;;;;34.96;18.48;94554.03;5013915;28;20231;-80
2023/03/25 08:55:15;;;;;;;19.08;14.68;;;;;;;34.54;19.48;94548.38;5013185;28;20301;-80
2023/03/25 08:57:42;;;;;;;18.33;13.98;;;;;;;32.44;21.13;94550.91;5014654;28;20603;-78
2023/03/25 09:00:12;;;;;;;20.38;12.90;;;;;;;31.18;22.38;94555.59;5013331;28;20224;-77
2023/03/25 09:02:39;;;;;;;21.65;13.20;;;;;;;31.01;22.64;94545.31;5013354;28;20204;-77
2023/03/25 09:05:09;;;;;;;17.60;13.27;;;;;;;31.10;22.70;94557.31;5012358;28;20322;-77
2023/03/25 09:07:36;;;;;;;18.48;12.52;;;;;;;30.92;23.07;94546.47;5014283;28;20418;-78
2023/03/25 09:10:05;;;;;;;19.88;12.90;;;;;;;31.40;22.86;94544.88;5013456;28;20212;-78
2023/03/25 09:12:31;;;;;;;24.63;13.27;;;;;;;32.06;22.25;94533.94;5012564;28;20281;-79
2023/03/25 09:14:58;;;;;;;20.60;11.68;;;;;;;30.99;23.25;94528.94;5012330;28;20277;-76
2023/03/25 09:17:26;;;;;;;23.05;12.68;;;;;;;29.54;24.67;94529.88;5013339;28;20212;-78
2023/03/25 09:19:53;;;;;;;29.83;12.93;;;;;;;28.05;26.57;94531.25;5013121;28;20657;-76
2023/03/25 09:22:21;;;;;;;20.67;12.73;;;;;;;27.44;27.82;94522.31;5013588;28;20215;-77
2023/03/25 09:24:47;;;;;;;17.58;11.77;;;;;;;27.51;28.02;94528.47;5011248;28;20326;-77
2023/03/25 09:27:14;;;;;;;17.17;10.88;;;;;;;27.69;27.06;94528.31;5013797;28;20255;-77
2023/03/25 09:29:41;;;;;;;19.67;10.40;;;;;;;27.52;27.60;94529.28;5012922;28;21011;-76
2023/03/25 09:32:08;;;;;;;14.25;10.57;;;;;;;27.17;28.09;94527.91;5013289;28;20205;-78
2023/03/25 09:34:35;;;;;;;15.48;9.88;;;;;;;26.68;29.11;94520.91;5012278;28;20235;-76
2023/03/25 09:37:03;;;;;;;17.52;10.23;;;;;;;25.91;30.01;94521.19;5014518;28;20294;-78
2023/03/25 09:39:31;;;;;;;16.10;8.65;;;;;;;25.38;30.19;94523.03;5010723;28;20231;-78
2023/03/25 09:42:11;;;;;;;9.27;7.38;;;;;;;25.21;30.09;94513.53;5011309;28;20726;-78
2023/03/25 09:44:47;;;;;;;8.13;7.35;;;;;;;25.56;30.40;94517.75;5012633;28;20291;-77
2023/03/25 09:47:16;;;;;;;10.23;7.65;;;;;;;26.23;29.80;94510.06;5012424;28;20257;-77
2023/03/25 09:49:45;;;;;;;9.98;7.70;;;;;;;26.81;29.05;94509.97;5013913;28;20278;-78
2023/03/25 09:52:16;;;;;;;7.53;6.82;;;;;;;27.26;27.98;94504.25;5012313;28;20232;-79
2023/03/25 09:54:50;;;;;;;13.85;6.45;;;;;;;27.17;27.89;94507.88;5014155;28;20957;-79
2023/03/25 09:57:22;;;;;;;6.82;5.78;;;;;;;27.20;28.08;94498.91;5011800;28;20243;-76
2023/03/25 09:59:52;;;;;;;7.80;5.47;;;;;;;27.30;26.92;94509.94;5013461;28;20231;-78
2023/03/25 10:02:32;;;;;;;5.22;4.68;;;;;;;27.39;26.66;94488.91;5012028;28;20305;-79
2023/03/25 10:05:20;;;;;;;8.82;4.53;;;;;;;27.40;26.20;94492.31;5013015;28;20262;-78
2023/03/25 10:08:12;;;;;;;4.47;4.07;;;;;;;27.22;26.37;94489.13;5012480;28;20705;-78
2023/03/25 10:10:50;;;;;;;4.18;3.78;;;;;;;26.82;26.30;94479.50;5013349;28;20677;-78
2023/03/25 10:13:23;;;;;;;4.25;3.78;;;;;;;26.86;25.89;94483.41;5010865;28;20208;-78
2023/03/25 10:15:56;;;;;;;7.43;3.83;;;;;;;26.89;25.81;94477.88;5012991;28;20347;-77
2023/03/25 10:18:44;;;;;;;4.05;3.85;;;;;;;26.93;25.58;94466.13;5012639;28;20227;-78
2023/03/25 10:21:15;;;;;;;4.40;3.45;;;;;;;26.92;25.44;94464.50;5012735;28;20294;-79
2023/03/25 10:23:45;;;;;;;4.35;3.95;;;;;;;26.58;26.56;94457.69;5012198;28;20695;-76
2023/03/25 10:26:18;;;;;;;4.47;3.67;;;;;;;26.52;26.27;94453.13;5011888;28;20228;-79
2023/03/25 10:28:52;;;;;;;4.13;3.78;;;;;;;26.49;26.89;94453.44;5012835;28;20274;-78
2023/03/25 10:31:24;;;;;;;5.38;4.53;;;;;;;26.20;27.15;94443.47;5012464;28;20251;-78
2023/03/25 10:33:55;;;;;;;4.57;4.18;;;;;;;26.09;26.83;94446.38;5013819;28;20239;-78
2023/03/25 10:36:30;;;;;;;4.45;4.05;;;;;;;26.11;26.90;94441.81;5012949;28;20211;-77
2023/03/25 10:39:00;;;;;;;3.92;3.50;;;;;;;25.94;26.77;94432.38;5012365;28;20316;-78
2023/03/25 10:41:34;;;;;;;4.03;3.72;;;;;;;25.75;26.88;94434.25;5013299;28;20207;-79
2023/03/25 10:44:01;;;;;;;4.05;3.67;;;;;;;25.76;26.84;94433.28;5011647;28;20203;-76
2023/03/25 10:46:31;;;;;;;4.47;4.03;;;;;;;25.76;27.49;94433.28;5009824;28;20738;-77
2023/03/25 10:48:58;;;;;;;4.07;3.75;;;;;;;25.74;27.90;94430.03;5010297;28;20423;-78
2023/03/25 10:51:29;;;;;;;5.93;4.50;;;;;;;25.77;27.25;94421.09;5011214;28;20204;-78
2023/03/25 10:53:56;;;;;;;4.43;4.03;;;;;;;25.98;27.00;94424.09;5014590;28;20838;-76
2023/03/25 10:56:25;;;;;;;4.85;3.92;;;;;;;26.07;27.99;94409.28;5014810;28;20751;-78
2023/03/25 10:58:55;;;;;;;4.13;3.78;;;;;;;26.30;28.11;94415.50;5015648;28;20245;-78
2023/03/25 11:01:34;;;;;;;4.15;3.75;;;;;;;26.35;27.96;94410.63;5015431;28;20247;-77
2023/03/25 11:04:03;;;;;;;4.32;4.03;;;;;;;26.22;28.39;94407.66;5014862;28;20322;-78
2023/03/25 11:06:33;;;;;;;4.38;3.97;;;;;;;26.25;28.67;94398.69;5018584;28;20204;-79
2023/03/25 11:09:16;;;;;;;4.38;4.07;;;;;;;26.56;28.02;94396.28;5015386;28;20474;-76
2023/03/25 11:11:44;;;;;;;4.38;4.13;;;;;;;26.61;27.80;94394.81;5016738;28;20696;-78
2023/03/25 11:14:13;;;;;;;4.10;3.80;;;;;;;26.34;27.89;94380.34;5016547;28;20196;-77
2023/03/25 11:16:46;;;;;;;3.85;3.53;;;;;;;26.07;28.10;94370.22;5014981;28;20235;-77
2023/03/25 11:19:19;;;;;;;5.20;3.85;;;;;;;25.65;28.58;94381.56;5014005;28;20346;-77
2023/03/25 11:21:48;;;;;;;4.13;3.75;;;;;;;25.44;28.99;94383.75;5014502;28;20239;-78
2023/03/25 11:24:19;;;;;;;3.75;3.47;;;;;;;25.43;29.18;94376.91;5015276;28;20291;-77
2023/03/25 11:26:51;;;;;;;3.78;3.47;;;;;;;25.41;28.46;94379.66;5016071;28;20254;-77
2023/03/25 11:29:24;;;;;;;5.45;3.88;;;;;;;25.26;28.85;94370.00;5012884;28;20221;-81
2023/03/25 11:32:04;;;;;;;5.82;3.55;;;;;;;25.15;27.81;94370.31;5015542;28;20261;-79
2023/03/25 11:34:31;;;;;;;4.40;3.50;;;;;;;25.11;28.52;94367.19;5014560;28;20214;-78